Prosperity, Missouri
Current Conditions -  °F | °C
As of 11:53 PM on Saturday 25 Oct 2014 (Local Time) from KJLN Reporting Station
Clear Clear  
Wind Chill: 65°   Ceiling: Unl
Heat Index: 65°   Visibility: 10mi
Dew Point: 62°   Wind: 7mph
Humidity: 90%   Direction: 180°S
Pressure: 30"   Gusts: NA
Location:  37.1074°N, 94.5218°W
Report Text: KJLN 260453Z AUTO 18006KT 10SM CLR 18/17 A3000 RMK AO2 SLP151 T01830167
Loading
Personal Weather Stations






























Interactive Weather Map
Tropical Storm Tracking
New forecast layout! Learn more

10-Day Weather Forecast

Advertisements
Track Severe Weather on mobile